テルアビブ / ベン・グリオン の空港の天気 - METARとTAF

ベン・グリオン国際空港(テルアビブ) ( LLBG / TLV ) - イスラエル ロード / テルアビブ
飛行場実況気象(Metar)
観測時間05/27 01:20 IDT (05/26 22:20 UTC)
風向・風速南東 3m/s
視程10km以上
天気現象
少しの雲 雲底高度 430m
気温20℃
湿度64%
気圧1013hPa
METARLLBG 262220Z 14005KT 9999 FEW014 20/13 Q1013 TEMPO SCT012
過去の天気等 Google飛行場航空写真 Wunderground天気予報

過去48時間のMETAR

飛行場予報(TAF)
発表時間: 5/26 20:04 IDT (5/26 17:04 UTC)
予報対象時間: 26日21時 IDT ~ 27日21時 IDT
風向・風速北北西 4m/s
視程10km以上
なし
26日22時 IDT ~ 26日24時 IDT に徐々に
風向・風速不定 2m/s
視程10km以上
少しの雲 雲底高度 460m
27日5時 IDT から 確率 40% で
風向・風速南東 2m/s
視程5000m
天気現象もや
全天の8割程度の雲 雲底高度 370m
27日10時 IDT ~ 27日12時 IDT に徐々に
風向・風速西北西 6m/s
TAF LLBG 261704Z 2618/2718 34007KT CAVOK
BECMG 2619/2621 VRB03KT 9999 FEW015
PROB40 2702/2705 14004KT 5000 BR BKN012
BECMG 2707/2709 29012KT TX27/2712Z TN17/2703Z